Weather History for KLBL - December, 2012

Change the Weather History Date:

Sunday, December 9, 2012

  Actual Average Record
Temperature  
Mean Temperature 26 °F -  
Max Temperature 35 °F 48 °F 76 °F (1939)
Min Temperature 15 °F 24 °F 0 °F (1978)
Degree Days  
Heating Degree Days 39    
Moisture  
Dew Point 12 °F    
Average Humidity 51    
Maximum Humidity 86    
Minimum Humidity 36    
Precipitation  
Precipitation 0.00 in - - ()
Sea Level Pressure  
Sea Level Pressure 30.07 in    
Wind  
Wind Speed 19 mph (North)    
Max Wind Speed 31 mph    
Max Gust Speed 40 mph    
Visibility 9 miles    
Events      
Averages and records for this station are not official NWS values.
T = Trace of Precipitation, MM = Missing Value Source: NWS Daily Summary

Daily Weather History Graph

Daily Weather History Graph

Search for Another Location

Airport or City:

Trip Planner

Search our weather history database for the weather conditions in past years. The results will help you decide how hot, cold, wet, or windy it might be!

Date:

Astronomy

Dec. 09, 2012 Rise Set
Actual Time 7:45 AM CST 5:26 PM CST
Civil Twilight 7:17 AM CST 5:55 PM CST
Nautical Twilight 6:44 AM CST 6:28 PM CST
Astronomical Twilight 6:13 AM CST 6:59 PM CST
Moon 3:25 AM CST (12/9) 2:31 PM CST (12/9)
Length of Visible Light 10h 38m
Length of Day
9h 40m
Waning Crescent, 18% of the Moon is Illuminated
Dec 9
Waning Crescent
Dec 13
New
Dec 19
First Quarter
Dec 28
Full
Jan 4
Last Quarter

Hourly Weather History & Observations

Time (CST) Temp. Windchill Dew Point Humidity Pressure Visibility Wind Dir Wind Speed Gust Speed Precip Events Conditions
12:15 AM 35.6 °F 27.1 °F 30.2 °F 81% 29.83 in 0.5 mi NNE 12.7 mph - N/A   Overcast
12:35 AM 35.6 °F 25.2 °F 30.2 °F 81% 29.84 in 0.5 mi NNE 18.4 mph 25.3 mph N/A   Overcast
12:55 AM 35.6 °F 27.1 °F 30.2 °F 81% 29.85 in 0.5 mi NNE 12.7 mph 19.6 mph N/A   Overcast
1:15 AM 35.6 °F 25.9 °F 30.2 °F 81% 29.85 in 0.8 mi North 16.1 mph - N/A   Overcast
1:35 AM 35.6 °F 26.2 °F 30.2 °F 81% 29.85 in 0.8 mi North 15.0 mph - N/A   Overcast
1:55 AM 35.6 °F 24.8 °F 30.2 °F 81% 29.86 in 0.8 mi North 19.6 mph - N/A   Overcast
2:15 AM 33.8 °F 24.8 °F 28.4 °F 81% 29.87 in 3.0 mi NNW 12.7 mph - N/A   Mostly Cloudy
2:35 AM 32.0 °F 22.1 °F 26.6 °F 80% 29.89 in 7.0 mi NNW 13.8 mph - N/A   Partly Cloudy
2:55 AM 30.2 °F 19.3 °F 26.6 °F 86% 29.89 in 10.0 mi NNW 15.0 mph - N/A   Clear
3:15 AM 30.2 °F 18.5 °F 26.6 °F 86% 29.90 in 10.0 mi North 17.3 mph - N/A   Clear
3:35 AM 32.0 °F 20.5 °F 24.8 °F 75% 29.91 in 10.0 mi North 18.4 mph - N/A   Clear
3:55 AM 30.2 °F 19.3 °F 24.8 °F 80% 29.91 in 10.0 mi North 15.0 mph - N/A   Scattered Clouds
4:15 AM 32.0 °F 20.8 °F 24.8 °F 75% 29.92 in 10.0 mi North 17.3 mph - N/A   Overcast
4:35 AM 33.8 °F 22.5 °F 24.8 °F 70% 29.92 in 10.0 mi North 19.6 mph 25.3 mph N/A   Overcast
4:55 AM 33.8 °F 22.2 °F 24.8 °F 70% 29.92 in 10.0 mi North 20.7 mph 26.5 mph N/A   Overcast
5:15 AM 33.8 °F 22.8 °F 24.8 °F 70% 29.93 in 10.0 mi North 18.4 mph 25.3 mph N/A   Overcast
5:35 AM 32.0 °F 20.5 °F 21.2 °F 64% 29.94 in 10.0 mi North 18.4 mph - N/A   Scattered Clouds
6:15 AM 33.8 °F 23.2 °F 21.2 °F 60% 29.95 in 10.0 mi North 17.3 mph - N/A   Overcast
6:35 AM 33.8 °F 22.5 °F 21.2 °F 60% 29.96 in 10.0 mi North 19.6 mph - N/A   Overcast
6:55 AM 33.8 °F 22.5 °F 21.2 °F 60% 29.97 in 10.0 mi North 19.6 mph 25.3 mph N/A   Overcast
7:15 AM 33.8 °F 21.9 °F 21.2 °F 60% 29.99 in 10.0 mi North 21.9 mph 27.6 mph N/A   Overcast
7:35 AM 33.8 °F 21.3 °F 19.4 °F 56% 30.00 in 10.0 mi North 24.2 mph 29.9 mph N/A   Overcast
7:55 AM 33.8 °F 22.5 °F 19.4 °F 56% 30.00 in 10.0 mi North 19.6 mph 26.5 mph N/A   Overcast
8:15 AM 33.8 °F 21.3 °F 17.6 °F 52% 30.01 in 10.0 mi North 24.2 mph 32.2 mph N/A   Overcast
8:35 AM 33.8 °F 21.6 °F 17.6 °F 52% 30.02 in 10.0 mi North 23.0 mph 29.9 mph N/A   Overcast
8:55 AM 33.8 °F 21.9 °F 17.6 °F 52% 30.03 in 10.0 mi North 21.9 mph 31.1 mph N/A   Overcast
9:15 AM 33.8 °F 21.3 °F 15.8 °F 48% 30.05 in 10.0 mi North 24.2 mph - N/A   Overcast
9:35 AM 33.8 °F 19.9 °F 15.8 °F 48% 30.06 in 10.0 mi North 31.1 mph 34.5 mph N/A   Overcast
9:55 AM 33.8 °F 20.5 °F 12.2 °F 41% 30.07 in 10.0 mi North 27.6 mph 40.3 mph N/A   Overcast
10:35 AM 33.8 °F 20.8 °F 10.4 °F 38% 30.09 in 10.0 mi North 26.5 mph 35.7 mph N/A   Overcast
10:55 AM 32.0 °F 17.9 °F 10.4 °F 41% 30.10 in 10.0 mi NNW 28.8 mph 33.4 mph N/A   Overcast
11:15 AM 32.0 °F 18.9 °F 10.4 °F 41% 30.10 in 10.0 mi North 24.2 mph 29.9 mph N/A   Overcast
11:35 AM 32.0 °F 18.9 °F 10.4 °F 41% 30.10 in 10.0 mi North 24.2 mph 27.6 mph N/A   Overcast
11:55 AM 32.0 °F 19.8 °F 10.4 °F 41% 30.11 in 10.0 mi NNW 20.7 mph - N/A   Overcast
12:15 PM 32.0 °F 18.9 °F 10.4 °F 41% 30.11 in 10.0 mi North 24.2 mph 28.8 mph N/A   Overcast
12:35 PM 30.2 °F 16.2 °F 8.6 °F 40% 30.10 in 10.0 mi North 25.3 mph 31.1 mph N/A   Overcast
12:55 PM 28.4 °F 13.5 °F 6.8 °F 40% 30.11 in 10.0 mi North 26.5 mph 33.4 mph N/A   Overcast
1:15 PM 28.4 °F 13.5 °F 6.8 °F 40% 30.11 in 10.0 mi NNW 26.5 mph 33.4 mph N/A   Overcast
1:35 PM 28.4 °F 13.3 °F 6.8 °F 40% 30.10 in 10.0 mi North 27.6 mph 33.4 mph N/A   Overcast
1:55 PM 28.4 °F 13.8 °F 8.6 °F 43% 30.10 in 10.0 mi NNW 25.3 mph 31.1 mph N/A   Overcast
2:15 PM 28.4 °F 14.4 °F 6.8 °F 40% 30.10 in 10.0 mi NNW 23.0 mph 31.1 mph N/A   Overcast
2:35 PM 28.4 °F 14.1 °F 6.8 °F 40% 30.10 in 10.0 mi NNW 24.2 mph 34.5 mph N/A   Overcast
2:55 PM 28.4 °F 14.4 °F 6.8 °F 40% 30.10 in 10.0 mi NNW 23.0 mph 27.6 mph N/A   Overcast
3:15 PM 28.4 °F 14.1 °F 6.8 °F 40% 30.09 in 10.0 mi North 24.2 mph 28.8 mph N/A   Overcast
3:35 PM 28.4 °F 13.5 °F 6.8 °F 40% 30.10 in 10.0 mi North 26.5 mph 32.2 mph N/A   Overcast
3:55 PM 28.4 °F 13.5 °F 6.8 °F 40% 30.12 in 10.0 mi North 26.5 mph 32.2 mph N/A   Overcast
4:15 PM 28.4 °F 13.0 °F 6.8 °F 40% 30.12 in 10.0 mi NNW 28.8 mph 32.2 mph N/A   Overcast
4:35 PM 28.4 °F 13.8 °F 5.0 °F 37% 30.12 in 10.0 mi NNW 25.3 mph 31.1 mph N/A   Overcast
4:55 PM 28.4 °F 15.1 °F 6.8 °F 40% 30.12 in 10.0 mi North 20.7 mph 27.6 mph N/A   Overcast
5:15 PM 28.4 °F 13.8 °F 6.8 °F 40% 30.12 in 10.0 mi North 25.3 mph 31.1 mph N/A   Overcast
5:35 PM 28.4 °F 14.1 °F 5.0 °F 37% 30.14 in 10.0 mi North 24.2 mph 29.9 mph N/A   Overcast
5:55 PM 28.4 °F 15.1 °F 5.0 °F 37% 30.15 in 10.0 mi North 20.7 mph - N/A   Mostly Cloudy
6:15 PM 26.6 °F 11.7 °F 3.2 °F 37% 30.16 in 10.0 mi North 24.2 mph 29.9 mph N/A   Mostly Cloudy
6:35 PM 26.6 °F 11.4 °F 3.2 °F 37% 30.17 in 10.0 mi North 25.3 mph 32.2 mph N/A   Partly Cloudy
6:55 PM 26.6 °F 12.0 °F 3.2 °F 37% 30.20 in 10.0 mi North 23.0 mph 32.2 mph N/A   Mostly Cloudy
7:15 PM 26.6 °F 12.0 °F 3.2 °F 37% 30.21 in 10.0 mi North 23.0 mph 28.8 mph N/A   Overcast
7:35 PM 26.6 °F 12.4 °F 3.2 °F 37% 30.21 in 10.0 mi North 21.9 mph 32.2 mph N/A   Overcast
7:55 PM 24.8 °F 9.0 °F 3.2 °F 40% 30.22 in 10.0 mi North 25.3 mph 29.9 mph N/A   Overcast
8:15 PM 24.8 °F 9.0 °F 3.2 °F 40% 30.23 in 10.0 mi NNW 25.3 mph 29.9 mph N/A   Mostly Cloudy
8:35 PM 24.8 °F 9.6 °F 1.4 °F 36% 30.22 in 10.0 mi NNW 23.0 mph 28.8 mph N/A   Mostly Cloudy
8:55 PM 24.8 °F 9.0 °F 1.4 °F 36% 30.24 in 10.0 mi North 25.3 mph 33.4 mph N/A   Mostly Cloudy
9:15 PM 23.0 °F 8.3 °F -0.4 °F 36% 30.23 in 10.0 mi North 19.6 mph 29.9 mph N/A   Partly Cloudy
9:35 PM 21.2 °F 6.4 °F -0.4 °F 39% 30.23 in 10.0 mi North 18.4 mph - N/A   Clear
9:55 PM 21.2 °F 8.3 °F -0.4 °F 39% 30.24 in 10.0 mi NNW 13.8 mph - N/A   Clear
10:15 PM 19.4 °F 3.2 °F -0.4 °F 42% 30.22 in 10.0 mi North 20.7 mph - N/A   Clear
10:35 PM 19.4 °F 4.1 °F -0.4 °F 42% 30.24 in 10.0 mi NNW 18.4 mph 24.2 mph N/A   Clear
10:55 PM 19.4 °F 5.5 °F -0.4 °F 42% 30.24 in 10.0 mi NNW 15.0 mph - N/A   Clear
11:15 PM 17.6 °F 3.7 °F -2.2 °F 42% 30.22 in 10.0 mi NNW 13.8 mph - N/A   Clear
11:35 PM 17.6 °F 5.0 °F -2.2 °F 42% 30.23 in 10.0 mi NNW 11.5 mph - N/A   Clear
11:55 PM 15.8 °F 2.7 °F -2.2 °F 45% 30.23 in 10.0 mi NNW 11.5 mph - N/A   Clear